sensor_id;sensor_type;location;lat;lon;timestamp;temperature;humidity
78366;HTU21D;67641;59.864;30.464;2023-09-07T00:01:31;26.38;67.30
78366;HTU21D;67641;59.864;30.464;2023-09-07T00:03:57;26.37;67.72
78366;HTU21D;67641;59.864;30.464;2023-09-07T00:06:24;26.35;67.34
78366;HTU21D;67641;59.864;30.464;2023-09-07T00:08:52;26.33;67.19
78366;HTU21D;67641;59.864;30.464;2023-09-07T00:11:18;26.31;67.39
78366;HTU21D;67641;59.864;30.464;2023-09-07T00:13:45;26.32;67.10
78366;HTU21D;67641;59.864;30.464;2023-09-07T00:16:11;26.26;67.02
78366;HTU21D;67641;59.864;30.464;2023-09-07T00:18:38;26.26;67.02
78366;HTU21D;67641;59.864;30.464;2023-09-07T00:21:04;26.24;66.81
78366;HTU21D;67641;59.864;30.464;2023-09-07T00:23:31;26.26;66.81
78366;HTU21D;67641;59.864;30.464;2023-09-07T00:25:59;26.24;66.69
78366;HTU21D;67641;59.864;30.464;2023-09-07T00:28:25;26.21;66.81
78366;HTU21D;67641;59.864;30.464;2023-09-07T00:30:52;26.21;66.85
78366;HTU21D;67641;59.864;30.464;2023-09-07T00:33:18;26.20;67.04
78366;HTU21D;67641;59.864;30.464;2023-09-07T00:35:45;26.16;67.65
78366;HTU21D;67641;59.864;30.464;2023-09-07T00:38:12;26.16;67.84
78366;HTU21D;67641;59.864;30.464;2023-09-07T00:40:42;26.17;67.82
78366;HTU21D;67641;59.864;30.464;2023-09-07T00:43:10;26.16;68.07
78366;HTU21D;67641;59.864;30.464;2023-09-07T00:45:38;26.15;67.64
78366;HTU21D;67641;59.864;30.464;2023-09-07T00:48:05;26.15;67.94
78366;HTU21D;67641;59.864;30.464;2023-09-07T00:50:32;26.11;68.02
78366;HTU21D;67641;59.864;30.464;2023-09-07T00:52:59;26.08;67.83
78366;HTU21D;67641;59.864;30.464;2023-09-07T00:55:27;26.04;67.89
78366;HTU21D;67641;59.864;30.464;2023-09-07T00:57:55;25.99;68.15
78366;HTU21D;67641;59.864;30.464;2023-09-07T01:00:22;25.98;68.26
78366;HTU21D;67641;59.864;30.464;2023-09-07T01:02:48;25.97;68.36
78366;HTU21D;67641;59.864;30.464;2023-09-07T01:05:15;25.97;68.53
78366;HTU21D;67641;59.864;30.464;2023-09-07T01:07:47;25.92;68.32
78366;HTU21D;67641;59.864;30.464;2023-09-07T01:10:17;25.90;68.30
78366;HTU21D;67641;59.864;30.464;2023-09-07T01:12:44;25.87;67.80
78366;HTU21D;67641;59.864;30.464;2023-09-07T01:15:11;25.81;67.08
78366;HTU21D;67641;59.864;30.464;2023-09-07T01:17:38;25.80;66.92
78366;HTU21D;67641;59.864;30.464;2023-09-07T01:20:07;25.81;66.57
78366;HTU21D;67641;59.864;30.464;2023-09-07T01:22:37;25.83;66.37
78366;HTU21D;67641;59.864;30.464;2023-09-07T01:25:05;25.83;66.28
78366;HTU21D;67641;59.864;30.464;2023-09-07T01:27:33;25.82;66.40
78366;HTU21D;67641;59.864;30.464;2023-09-07T01:30:01;25.82;66.38
78366;HTU21D;67641;59.864;30.464;2023-09-07T01:32:28;25.81;66.82
78366;HTU21D;67641;59.864;30.464;2023-09-07T01:34:57;25.81;67.01
78366;HTU21D;67641;59.864;30.464;2023-09-07T01:37:24;25.81;67.01
78366;HTU21D;67641;59.864;30.464;2023-09-07T01:39:50;25.83;67.06
78366;HTU21D;67641;59.864;30.464;2023-09-07T01:42:17;25.81;67.07
78366;HTU21D;67641;59.864;30.464;2023-09-07T01:44:43;25.82;67.16
78366;HTU21D;67641;59.864;30.464;2023-09-07T01:47:10;25.78;67.23
78366;HTU21D;67641;59.864;30.464;2023-09-07T01:49:36;25.78;67.33
78366;HTU21D;67641;59.864;30.464;2023-09-07T01:52:03;25.79;67.41
78366;HTU21D;67641;59.864;30.464;2023-09-07T01:54:30;25.77;67.36
78366;HTU21D;67641;59.864;30.464;2023-09-07T01:56:57;25.77;67.55
78366;HTU21D;67641;59.864;30.464;2023-09-07T01:59:24;25.76;67.58
78366;HTU21D;67641;59.864;30.464;2023-09-07T02:01:50;25.74;67.29
78366;HTU21D;67641;59.864;30.464;2023-09-07T02:04:17;25.72;67.25
78366;HTU21D;67641;59.864;30.464;2023-09-07T02:06:43;25.68;67.63
78366;HTU21D;67641;59.864;30.464;2023-09-07T02:09:10;25.68;67.60
78366;HTU21D;67641;59.864;30.464;2023-09-07T02:11:36;25.65;67.50
78366;HTU21D;67641;59.864;30.464;2023-09-07T02:14:03;25.62;67.42
78366;HTU21D;67641;59.864;30.464;2023-09-07T02:16:30;25.59;67.41
78366;HTU21D;67641;59.864;30.464;2023-09-07T02:19:02;25.56;67.60
78366;HTU21D;67641;59.864;30.464;2023-09-07T02:21:30;25.51;67.82
78366;HTU21D;67641;59.864;30.464;2023-09-07T02:23:56;25.52;67.75
78366;HTU21D;67641;59.864;30.464;2023-09-07T02:26:22;25.49;68.06
78366;HTU21D;67641;59.864;30.464;2023-09-07T02:28:49;25.48;67.86
78366;HTU21D;67641;59.864;30.464;2023-09-07T02:31:15;25.46;67.94
78366;HTU21D;67641;59.864;30.464;2023-09-07T02:33:42;25.46;67.78
78366;HTU21D;67641;59.864;30.464;2023-09-07T02:36:08;25.46;67.84
78366;HTU21D;67641;59.864;30.464;2023-09-07T02:38:35;25.42;68.13
78366;HTU21D;67641;59.864;30.464;2023-09-07T02:41:01;25.40;67.81
78366;HTU21D;67641;59.864;30.464;2023-09-07T02:43:28;25.40;67.78
78366;HTU21D;67641;59.864;30.464;2023-09-07T02:45:55;25.38;67.44
78366;HTU21D;67641;59.864;30.464;2023-09-07T02:48:21;25.35;67.34
78366;HTU21D;67641;59.864;30.464;2023-09-07T02:50:48;25.36;67.38
78366;HTU21D;67641;59.864;30.464;2023-09-07T02:53:16;25.37;66.94
78366;HTU21D;67641;59.864;30.464;2023-09-07T02:55:43;25.35;67.02
78366;HTU21D;67641;59.864;30.464;2023-09-07T02:58:11;25.35;67.20
78366;HTU21D;67641;59.864;30.464;2023-09-07T03:00:42;25.37;67.55
78366;HTU21D;67641;59.864;30.464;2023-09-07T03:03:11;25.37;67.48
78366;HTU21D;67641;59.864;30.464;2023-09-07T03:05:43;25.37;67.44
78366;HTU21D;67641;59.864;30.464;2023-09-07T03:08:09;25.37;67.63
78366;HTU21D;67641;59.864;30.464;2023-09-07T03:10:36;25.36;67.49
78366;HTU21D;67641;59.864;30.464;2023-09-07T03:13:06;25.35;67.52
78366;HTU21D;67641;59.864;30.464;2023-09-07T03:15:33;25.32;67.45
78366;HTU21D;67641;59.864;30.464;2023-09-07T03:18:00;25.30;67.50
78366;HTU21D;67641;59.864;30.464;2023-09-07T03:20:27;25.30;67.62
78366;HTU21D;67641;59.864;30.464;2023-09-07T03:22:53;25.32;67.57
78366;HTU21D;67641;59.864;30.464;2023-09-07T03:25:20;25.34;67.55
78366;HTU21D;67641;59.864;30.464;2023-09-07T03:27:47;25.36;67.80
78366;HTU21D;67641;59.864;30.464;2023-09-07T03:30:13;25.36;67.74
78366;HTU21D;67641;59.864;30.464;2023-09-07T03:32:40;25.39;67.92
78366;HTU21D;67641;59.864;30.464;2023-09-07T03:35:07;25.44;67.90
78366;HTU21D;67641;59.864;30.464;2023-09-07T03:37:36;25.46;68.21
78366;HTU21D;67641;59.864;30.464;2023-09-07T03:40:04;25.49;67.80
78366;HTU21D;67641;59.864;30.464;2023-09-07T03:42:31;25.52;67.60
78366;HTU21D;67641;59.864;30.464;2023-09-07T03:44:58;25.53;67.49
78366;HTU21D;67641;59.864;30.464;2023-09-07T03:47:25;25.56;67.57
78366;HTU21D;67641;59.864;30.464;2023-09-07T03:49:55;25.57;67.40
78366;HTU21D;67641;59.864;30.464;2023-09-07T03:52:25;25.57;67.35
78366;HTU21D;67641;59.864;30.464;2023-09-07T03:54:56;25.62;67.43
78366;HTU21D;67641;59.864;30.464;2023-09-07T03:57:25;25.67;67.23
78366;HTU21D;67641;59.864;30.464;2023-09-07T03:59:51;25.71;66.99
78366;HTU21D;67641;59.864;30.464;2023-09-07T04:02:18;25.73;66.78
78366;HTU21D;67641;59.864;30.464;2023-09-07T04:04:49;25.81;66.49
78366;HTU21D;67641;59.864;30.464;2023-09-07T04:07:16;25.88;66.07
78366;HTU21D;67641;59.864;30.464;2023-09-07T04:09:44;25.97;65.69
78366;HTU21D;67641;59.864;30.464;2023-09-07T04:12:12;26.07;65.54
78366;HTU21D;67641;59.864;30.464;2023-09-07T04:14:38;26.11;64.81
78366;HTU21D;67641;59.864;30.464;2023-09-07T04:17:05;26.38;63.37
78366;HTU21D;67641;59.864;30.464;2023-09-07T04:19:32;26.97;61.50
78366;HTU21D;67641;59.864;30.464;2023-09-07T04:21:59;27.58;59.51
78366;HTU21D;67641;59.864;30.464;2023-09-07T04:24:26;28.29;57.67
78366;HTU21D;67641;59.864;30.464;2023-09-07T04:27:00;28.95;55.80
78366;HTU21D;67641;59.864;30.464;2023-09-07T04:29:30;29.59;54.17
78366;HTU21D;67641;59.864;30.464;2023-09-07T04:31:56;30.17;52.75
78366;HTU21D;67641;59.864;30.464;2023-09-07T04:34:23;30.75;51.16
78366;HTU21D;67641;59.864;30.464;2023-09-07T04:36:49;31.25;49.74
78366;HTU21D;67641;59.864;30.464;2023-09-07T04:39:16;31.68;49.02
78366;HTU21D;67641;59.864;30.464;2023-09-07T04:41:42;32.15;47.74
78366;HTU21D;67641;59.864;30.464;2023-09-07T04:44:09;32.59;46.79
78366;HTU21D;67641;59.864;30.464;2023-09-07T04:46:35;32.90;45.72
78366;HTU21D;67641;59.864;30.464;2023-09-07T04:49:02;33.21;45.19
78366;HTU21D;67641;59.864;30.464;2023-09-07T04:51:28;33.65;43.99
78366;HTU21D;67641;59.864;30.464;2023-09-07T04:53:54;34.12;43.05
78366;HTU21D;67641;59.864;30.464;2023-09-07T04:56:21;34.50;42.08
78366;HTU21D;67641;59.864;30.464;2023-09-07T04:58:48;34.66;40.87
78366;HTU21D;67641;59.864;30.464;2023-09-07T05:01:14;34.89;40.47
78366;HTU21D;67641;59.864;30.464;2023-09-07T05:03:40;35.18;39.78
78366;HTU21D;67641;59.864;30.464;2023-09-07T05:06:07;35.56;38.72
78366;HTU21D;67641;59.864;30.464;2023-09-07T05:08:33;35.93;38.24
78366;HTU21D;67641;59.864;30.464;2023-09-07T05:11:04;36.25;36.95
78366;HTU21D;67641;59.864;30.464;2023-09-07T05:13:31;36.44;36.27
78366;HTU21D;67641;59.864;30.464;2023-09-07T05:15:59;36.71;36.20
78366;HTU21D;67641;59.864;30.464;2023-09-07T05:18:27;36.88;36.82
78366;HTU21D;67641;59.864;30.464;2023-09-07T05:20:53;36.84;38.30
78366;HTU21D;67641;59.864;30.464;2023-09-07T05:23:22;36.86;41.64
78366;HTU21D;67641;59.864;30.464;2023-09-07T05:25:53;37.11;39.88
78366;HTU21D;67641;59.864;30.464;2023-09-07T05:28:20;37.22;39.52
78366;HTU21D;67641;59.864;30.464;2023-09-07T05:30:47;37.43;38.91
78366;HTU21D;67641;59.864;30.464;2023-09-07T05:33:15;37.65;39.14
78366;HTU21D;67641;59.864;30.464;2023-09-07T05:35:43;37.74;39.49
78366;HTU21D;67641;59.864;30.464;2023-09-07T05:38:10;37.63;40.62
78366;HTU21D;67641;59.864;30.464;2023-09-07T05:40:38;37.88;40.33
78366;HTU21D;67641;59.864;30.464;2023-09-07T05:43:05;37.13;42.31
78366;HTU21D;67641;59.864;30.464;2023-09-07T05:45:36;36.63;43.42
78366;HTU21D;67641;59.864;30.464;2023-09-07T05:48:06;36.89;42.89
78366;HTU21D;67641;59.864;30.464;2023-09-07T05:50:37;37.25;42.00
78366;HTU21D;67641;59.864;30.464;2023-09-07T05:53:04;36.98;42.87
78366;HTU21D;67641;59.864;30.464;2023-09-07T05:55:31;37.29;43.03
78366;HTU21D;67641;59.864;30.464;2023-09-07T05:57:58;37.32;43.44
78366;HTU21D;67641;59.864;30.464;2023-09-07T06:00:25;37.15;43.65
78366;HTU21D;67641;59.864;30.464;2023-09-07T06:02:52;36.95;44.29
78366;HTU21D;67641;59.864;30.464;2023-09-07T06:05:19;37.26;44.31
78366;HTU21D;67641;59.864;30.464;2023-09-07T06:07:45;37.30;44.73
78366;HTU21D;67641;59.864;30.464;2023-09-07T06:10:12;37.00;45.32
78366;HTU21D;67641;59.864;30.464;2023-09-07T06:12:39;36.49;46.49
78366;HTU21D;67641;59.864;30.464;2023-09-07T06:15:07;36.69;46.04
78366;HTU21D;67641;59.864;30.464;2023-09-07T06:17:34;37.05;45.11
78366;HTU21D;67641;59.864;30.464;2023-09-07T06:20:01;37.01;45.40
78366;HTU21D;67641;59.864;30.464;2023-09-07T06:22:27;37.33;44.80
78366;HTU21D;67641;59.864;30.464;2023-09-07T06:24:54;37.20;44.85
78366;HTU21D;67641;59.864;30.464;2023-09-07T06:27:21;37.12;45.04
78366;HTU21D;67641;59.864;30.464;2023-09-07T06:29:47;36.89;45.67
78366;HTU21D;67641;59.864;30.464;2023-09-07T06:32:14;36.59;46.86
78366;HTU21D;67641;59.864;30.464;2023-09-07T06:34:41;36.67;46.04
78366;HTU21D;67641;59.864;30.464;2023-09-07T06:37:07;37.08;44.57
78366;HTU21D;67641;59.864;30.464;2023-09-07T06:39:34;36.36;46.44
78366;HTU21D;67641;59.864;30.464;2023-09-07T06:42:01;36.21;46.83
78366;HTU21D;67641;59.864;30.464;2023-09-07T06:44:28;35.80;47.89
78366;HTU21D;67641;59.864;30.464;2023-09-07T06:46:54;36.29;46.49
78366;HTU21D;67641;59.864;30.464;2023-09-07T06:49:23;36.10;47.16
78366;HTU21D;67641;59.864;30.464;2023-09-07T06:51:50;36.48;46.13
78366;HTU21D;67641;59.864;30.464;2023-09-07T06:54:16;36.71;45.65
78366;HTU21D;67641;59.864;30.464;2023-09-07T06:56:43;36.84;44.57
78366;HTU21D;67641;59.864;30.464;2023-09-07T06:59:10;36.86;44.77
78366;HTU21D;67641;59.864;30.464;2023-09-07T07:01:36;36.62;45.62
78366;HTU21D;67641;59.864;30.464;2023-09-07T07:04:03;36.66;45.54
78366;HTU21D;67641;59.864;30.464;2023-09-07T07:06:30;36.81;45.25
78366;HTU21D;67641;59.864;30.464;2023-09-07T07:08:56;37.01;44.66
78366;HTU21D;67641;59.864;30.464;2023-09-07T07:11:23;36.91;44.60
78366;HTU21D;67641;59.864;30.464;2023-09-07T07:13:49;37.34;43.48
78366;HTU21D;67641;59.864;30.464;2023-09-07T07:16:16;37.82;42.29
78366;HTU21D;67641;59.864;30.464;2023-09-07T07:18:43;38.23;41.71
78366;HTU21D;67641;59.864;30.464;2023-09-07T07:21:10;38.41;40.38
78366;HTU21D;67641;59.864;30.464;2023-09-07T07:23:37;37.87;41.93
78366;HTU21D;67641;59.864;30.464;2023-09-07T07:26:03;37.54;42.74
78366;HTU21D;67641;59.864;30.464;2023-09-07T07:28:30;37.26;43.12
78366;HTU21D;67641;59.864;30.464;2023-09-07T07:30:57;37.66;41.48
78366;HTU21D;67641;59.864;30.464;2023-09-07T07:33:23;37.41;41.43
78366;HTU21D;67641;59.864;30.464;2023-09-07T07:35:50;37.47;41.87
78366;HTU21D;67641;59.864;30.464;2023-09-07T07:38:17;37.35;42.29
78366;HTU21D;67641;59.864;30.464;2023-09-07T07:40:43;37.55;41.80
78366;HTU21D;67641;59.864;30.464;2023-09-07T07:43:12;37.44;42.26
78366;HTU21D;67641;59.864;30.464;2023-09-07T07:45:39;37.85;40.55
78366;HTU21D;67641;59.864;30.464;2023-09-07T07:48:06;37.58;41.73
78366;HTU21D;67641;59.864;30.464;2023-09-07T07:50:40;37.59;41.63
78366;HTU21D;67641;59.864;30.464;2023-09-07T07:53:07;37.75;41.65
78366;HTU21D;67641;59.864;30.464;2023-09-07T07:55:35;37.06;43.42
78366;HTU21D;67641;59.864;30.464;2023-09-07T07:58:09;36.69;44.37
78366;HTU21D;67641;59.864;30.464;2023-09-07T08:00:36;36.75;44.11
78366;HTU21D;67641;59.864;30.464;2023-09-07T08:03:04;36.88;43.90
78366;HTU21D;67641;59.864;30.464;2023-09-07T08:05:34;36.87;43.93
78366;HTU21D;67641;59.864;30.464;2023-09-07T08:08:01;37.17;43.32
78366;HTU21D;67641;59.864;30.464;2023-09-07T08:10:29;36.98;43.47
78366;HTU21D;67641;59.864;30.464;2023-09-07T08:12:56;37.36;42.87
78366;HTU21D;67641;59.864;30.464;2023-09-07T08:15:23;37.32;43.00
78366;HTU21D;67641;59.864;30.464;2023-09-07T08:17:51;36.98;43.75
78366;HTU21D;67641;59.864;30.464;2023-09-07T08:20:18;36.55;44.74
78366;HTU21D;67641;59.864;30.464;2023-09-07T08:22:44;36.92;43.90
78366;HTU21D;67641;59.864;30.464;2023-09-07T08:25:13;37.23;43.24
78366;HTU21D;67641;59.864;30.464;2023-09-07T08:27:42;36.96;42.79
78366;HTU21D;67641;59.864;30.464;2023-09-07T08:30:15;36.80;42.39
78366;HTU21D;67641;59.864;30.464;2023-09-07T08:32:44;36.08;43.81
78366;HTU21D;67641;59.864;30.464;2023-09-07T08:35:12;35.99;45.64
78366;HTU21D;67641;59.864;30.464;2023-09-07T08:37:43;35.74;46.03
78366;HTU21D;67641;59.864;30.464;2023-09-07T08:40:09;35.82;45.16
78366;HTU21D;67641;59.864;30.464;2023-09-07T08:42:38;36.38;43.51
78366;HTU21D;67641;59.864;30.464;2023-09-07T08:45:08;35.97;41.97
78366;HTU21D;67641;59.864;30.464;2023-09-07T08:47:36;35.50;43.42
78366;HTU21D;67641;59.864;30.464;2023-09-07T08:50:04;35.89;42.39
78366;HTU21D;67641;59.864;30.464;2023-09-07T08:52:33;36.30;41.88
78366;HTU21D;67641;59.864;30.464;2023-09-07T08:55:00;36.27;42.12
78366;HTU21D;67641;59.864;30.464;2023-09-07T08:57:31;36.24;42.32
78366;HTU21D;67641;59.864;30.464;2023-09-07T08:59:58;35.83;42.74
78366;HTU21D;67641;59.864;30.464;2023-09-07T09:02:25;36.15;42.19
78366;HTU21D;67641;59.864;30.464;2023-09-07T09:04:52;36.23;42.13
78366;HTU21D;67641;59.864;30.464;2023-09-07T09:07:19;36.23;41.87
78366;HTU21D;67641;59.864;30.464;2023-09-07T09:09:47;36.31;41.97
78366;HTU21D;67641;59.864;30.464;2023-09-07T09:12:13;36.15;42.50
78366;HTU21D;67641;59.864;30.464;2023-09-07T09:14:44;36.25;42.09
78366;HTU21D;67641;59.864;30.464;2023-09-07T09:17:14;36.25;42.58
78366;HTU21D;67641;59.864;30.464;2023-09-07T09:19:41;36.13;42.97
78366;HTU21D;67641;59.864;30.464;2023-09-07T09:22:09;36.08;43.17
78366;HTU21D;67641;59.864;30.464;2023-09-07T09:24:36;36.04;43.39
78366;HTU21D;67641;59.864;30.464;2023-09-07T09:27:03;35.92;44.01
78366;HTU21D;67641;59.864;30.464;2023-09-07T09:29:33;35.63;44.53
78366;HTU21D;67641;59.864;30.464;2023-09-07T09:32:04;35.90;43.79
78366;HTU21D;67641;59.864;30.464;2023-09-07T09:34:36;35.88;44.32
78366;HTU21D;67641;59.864;30.464;2023-09-07T09:37:03;36.23;43.87
78366;HTU21D;67641;59.864;30.464;2023-09-07T09:39:30;36.69;42.47
78366;HTU21D;67641;59.864;30.464;2023-09-07T09:41:56;36.41;43.00
78366;HTU21D;67641;59.864;30.464;2023-09-07T09:44:23;36.29;43.44
78366;HTU21D;67641;59.864;30.464;2023-09-07T09:46:53;36.37;43.67
78366;HTU21D;67641;59.864;30.464;2023-09-07T09:49:23;37.13;41.87
78366;HTU21D;67641;59.864;30.464;2023-09-07T09:51:50;37.54;40.88
78366;HTU21D;67641;59.864;30.464;2023-09-07T09:54:17;37.49;40.76
78366;HTU21D;67641;59.864;30.464;2023-09-07T09:56:44;37.72;40.06
78366;HTU21D;67641;59.864;30.464;2023-09-07T09:59:14;38.07;40.26
78366;HTU21D;67641;59.864;30.464;2023-09-07T10:01:44;38.14;40.46
78366;HTU21D;67641;59.864;30.464;2023-09-07T10:04:15;37.28;42.77
78366;HTU21D;67641;59.864;30.464;2023-09-07T10:06:58;36.82;44.69
78366;HTU21D;67641;59.864;30.464;2023-09-07T10:09:32;37.43;43.93
78366;HTU21D;67641;59.864;30.464;2023-09-07T10:11:59;36.90;45.96
78366;HTU21D;67641;59.864;30.464;2023-09-07T10:14:38;36.43;47.37
78366;HTU21D;67641;59.864;30.464;2023-09-07T10:17:05;36.51;46.64
78366;HTU21D;67641;59.864;30.464;2023-09-07T10:19:32;36.86;44.94
78366;HTU21D;67641;59.864;30.464;2023-09-07T10:22:00;36.66;45.41
78366;HTU21D;67641;59.864;30.464;2023-09-07T10:24:31;37.72;42.14
78366;HTU21D;67641;59.864;30.464;2023-09-07T10:27:06;37.91;41.20
78366;HTU21D;67641;59.864;30.464;2023-09-07T10:29:44;38.15;39.56
78366;HTU21D;67641;59.864;30.464;2023-09-07T10:32:11;37.29;41.45
78366;HTU21D;67641;59.864;30.464;2023-09-07T10:34:41;36.98;42.36
78366;HTU21D;67641;59.864;30.464;2023-09-07T10:37:11;36.14;42.26
78366;HTU21D;67641;59.864;30.464;2023-09-07T10:39:43;35.49;42.71
78366;HTU21D;67641;59.864;30.464;2023-09-07T10:42:22;35.04;42.68
78366;HTU21D;67641;59.864;30.464;2023-09-07T10:44:50;34.95;40.17
78366;HTU21D;67641;59.864;30.464;2023-09-07T10:47:17;34.82;40.55
78366;HTU21D;67641;59.864;30.464;2023-09-07T10:49:43;34.53;40.94
78366;HTU21D;67641;59.864;30.464;2023-09-07T10:52:10;34.27;41.91
78366;HTU21D;67641;59.864;30.464;2023-09-07T10:54:37;34.38;41.51
78366;HTU21D;67641;59.864;30.464;2023-09-07T10:57:13;34.47;41.07
78366;HTU21D;67641;59.864;30.464;2023-09-07T10:59:44;34.53;40.58
78366;HTU21D;67641;59.864;30.464;2023-09-07T11:02:12;34.76;39.59
78366;HTU21D;67641;59.864;30.464;2023-09-07T11:04:38;34.64;39.72
78366;HTU21D;67641;59.864;30.464;2023-09-07T11:07:05;34.61;40.55
78366;HTU21D;67641;59.864;30.464;2023-09-07T11:09:32;34.67;40.88
78366;HTU21D;67641;59.864;30.464;2023-09-07T11:12:07;34.66;40.57
78366;HTU21D;67641;59.864;30.464;2023-09-07T11:14:34;34.59;40.94
78366;HTU21D;67641;59.864;30.464;2023-09-07T11:17:01;34.42;41.46
78366;HTU21D;67641;59.864;30.464;2023-09-07T11:19:33;34.18;42.23
78366;HTU21D;67641;59.864;30.464;2023-09-07T11:22:00;33.77;43.72
78366;HTU21D;67641;59.864;30.464;2023-09-07T11:24:27;33.68;44.28
78366;HTU21D;67641;59.864;30.464;2023-09-07T11:26:57;33.79;44.02
78366;HTU21D;67641;59.864;30.464;2023-09-07T11:29:24;33.80;45.09
78366;HTU21D;67641;59.864;30.464;2023-09-07T11:31:51;33.72;45.96
78366;HTU21D;67641;59.864;30.464;2023-09-07T11:34:17;33.73;46.81
78366;HTU21D;67641;59.864;30.464;2023-09-07T11:36:44;33.58;48.02
78366;HTU21D;67641;59.864;30.464;2023-09-07T11:39:10;33.70;48.34
78366;HTU21D;67641;59.864;30.464;2023-09-07T11:41:44;33.47;49.15
78366;HTU21D;67641;59.864;30.464;2023-09-07T11:44:11;33.22;50.09
78366;HTU21D;67641;59.864;30.464;2023-09-07T11:46:38;33.02;50.85
78366;HTU21D;67641;59.864;30.464;2023-09-07T11:49:05;33.02;50.63
78366;HTU21D;67641;59.864;30.464;2023-09-07T11:51:32;32.94;51.93
78366;HTU21D;67641;59.864;30.464;2023-09-07T11:53:58;32.96;52.79
78366;HTU21D;67641;59.864;30.464;2023-09-07T11:56:25;33.02;53.46
78366;HTU21D;67641;59.864;30.464;2023-09-07T11:58:53;33.14;52.78
78366;HTU21D;67641;59.864;30.464;2023-09-07T12:01:19;32.94;51.92
78366;HTU21D;67641;59.864;30.464;2023-09-07T12:03:46;32.92;51.18
78366;HTU21D;67641;59.864;30.464;2023-09-07T12:06:13;32.62;51.40
78366;HTU21D;67641;59.864;30.464;2023-09-07T12:08:42;32.67;51.35
78366;HTU21D;67641;59.864;30.464;2023-09-07T12:11:23;32.64;52.00
78366;HTU21D;67641;59.864;30.464;2023-09-07T12:13:50;32.62;52.96
78366;HTU21D;67641;59.864;30.464;2023-09-07T12:16:16;32.61;53.25
78366;HTU21D;67641;59.864;30.464;2023-09-07T12:18:43;32.75;51.96
78366;HTU21D;67641;59.864;30.464;2023-09-07T12:21:09;32.77;52.69
78366;HTU21D;67641;59.864;30.464;2023-09-07T12:23:36;32.81;53.30
78366;HTU21D;67641;59.864;30.464;2023-09-07T12:26:02;32.55;53.73
78366;HTU21D;67641;59.864;30.464;2023-09-07T12:28:30;32.44;53.89
78366;HTU21D;67641;59.864;30.464;2023-09-07T12:30:57;32.44;54.11
78366;HTU21D;67641;59.864;30.464;2023-09-07T12:33:24;32.69;53.47
78366;HTU21D;67641;59.864;30.464;2023-09-07T12:35:51;32.76;53.39
78366;HTU21D;67641;59.864;30.464;2023-09-07T12:38:18;32.67;53.42
78366;HTU21D;67641;59.864;30.464;2023-09-07T12:40:46;32.43;54.11
78366;HTU21D;67641;59.864;30.464;2023-09-07T12:43:12;32.41;54.80
78366;HTU21D;67641;59.864;30.464;2023-09-07T12:45:38;32.28;55.37
78366;HTU21D;67641;59.864;30.464;2023-09-07T12:48:05;32.34;55.23
78366;HTU21D;67641;59.864;30.464;2023-09-07T12:50:32;32.37;54.06
78366;HTU21D;67641;59.864;30.464;2023-09-07T12:52:58;32.48;54.01
78366;HTU21D;67641;59.864;30.464;2023-09-07T12:55:25;32.35;55.18
78366;HTU21D;67641;59.864;30.464;2023-09-07T12:57:52;32.22;56.39
78366;HTU21D;67641;59.864;30.464;2023-09-07T13:00:18;32.00;57.13
78366;HTU21D;67641;59.864;30.464;2023-09-07T13:02:45;31.97;57.71
78366;HTU21D;67641;59.864;30.464;2023-09-07T13:05:11;32.16;57.70
78366;HTU21D;67641;59.864;30.464;2023-09-07T13:07:38;32.24;57.39
78366;HTU21D;67641;59.864;30.464;2023-09-07T13:10:08;32.38;57.04
78366;HTU21D;67641;59.864;30.464;2023-09-07T13:12:35;32.49;56.31
78366;HTU21D;67641;59.864;30.464;2023-09-07T13:15:01;32.39;56.42
78366;HTU21D;67641;59.864;30.464;2023-09-07T13:17:28;32.40;56.15
78366;HTU21D;67641;59.864;30.464;2023-09-07T13:19:55;32.39;56.68
78366;HTU21D;67641;59.864;30.464;2023-09-07T13:22:22;32.43;56.43
78366;HTU21D;67641;59.864;30.464;2023-09-07T13:24:49;32.38;56.01
78366;HTU21D;67641;59.864;30.464;2023-09-07T13:27:16;32.37;55.38
78366;HTU21D;67641;59.864;30.464;2023-09-07T13:29:42;32.33;55.60
78366;HTU21D;67641;59.864;30.464;2023-09-07T13:32:08;32.34;56.03
78366;HTU21D;67641;59.864;30.464;2023-09-07T13:34:36;32.41;55.92
78366;HTU21D;67641;59.864;30.464;2023-09-07T13:37:02;32.31;56.36
78366;HTU21D;67641;59.864;30.464;2023-09-07T13:39:29;32.19;56.48
78366;HTU21D;67641;59.864;30.464;2023-09-07T13:41:55;32.14;56.32
78366;HTU21D;67641;59.864;30.464;2023-09-07T13:44:21;32.08;56.82
78366;HTU21D;67641;59.864;30.464;2023-09-07T13:46:48;31.85;57.91
78366;HTU21D;67641;59.864;30.464;2023-09-07T13:49:15;31.79;58.11
78366;HTU21D;67641;59.864;30.464;2023-09-07T13:51:41;31.78;58.31
78366;HTU21D;67641;59.864;30.464;2023-09-07T13:54:08;31.74;58.36
78366;HTU21D;67641;59.864;30.464;2023-09-07T13:56:35;31.79;58.74
78366;HTU21D;67641;59.864;30.464;2023-09-07T13:59:02;31.70;59.34
78366;HTU21D;67641;59.864;30.464;2023-09-07T14:01:29;31.78;59.28
78366;HTU21D;67641;59.864;30.464;2023-09-07T14:03:55;31.73;59.00
78366;HTU21D;67641;59.864;30.464;2023-09-07T14:06:22;31.64;59.41
78366;HTU21D;67641;59.864;30.464;2023-09-07T14:08:50;31.49;59.96
78366;HTU21D;67641;59.864;30.464;2023-09-07T14:11:17;31.31;60.10
78366;HTU21D;67641;59.864;30.464;2023-09-07T14:13:44;31.41;59.65
78366;HTU21D;67641;59.864;30.464;2023-09-07T14:16:10;31.34;60.45
78366;HTU21D;67641;59.864;30.464;2023-09-07T14:18:37;31.33;59.87
78366;HTU21D;67641;59.864;30.464;2023-09-07T14:21:03;31.36;58.80
78366;HTU21D;67641;59.864;30.464;2023-09-07T14:23:30;31.46;58.96
78366;HTU21D;67641;59.864;30.464;2023-09-07T14:25:56;31.44;59.49
78366;HTU21D;67641;59.864;30.464;2023-09-07T14:28:23;31.46;58.14
78366;HTU21D;67641;59.864;30.464;2023-09-07T14:30:49;31.43;58.16
78366;HTU21D;67641;59.864;30.464;2023-09-07T14:33:16;31.34;58.34
78366;HTU21D;67641;59.864;30.464;2023-09-07T14:35:42;31.31;58.28
78366;HTU21D;67641;59.864;30.464;2023-09-07T14:38:08;31.38;58.00
78366;HTU21D;67641;59.864;30.464;2023-09-07T14:40:35;31.44;57.36
78366;HTU21D;67641;59.864;30.464;2023-09-07T14:43:01;31.55;57.78
78366;HTU21D;67641;59.864;30.464;2023-09-07T14:45:28;31.54;58.46
78366;HTU21D;67641;59.864;30.464;2023-09-07T14:47:54;31.36;59.30
78366;HTU21D;67641;59.864;30.464;2023-09-07T14:50:21;31.38;59.65
78366;HTU21D;67641;59.864;30.464;2023-09-07T14:52:47;31.42;59.64
78366;HTU21D;67641;59.864;30.464;2023-09-07T14:55:14;31.40;59.99
78366;HTU21D;67641;59.864;30.464;2023-09-07T14:57:41;31.35;60.14
78366;HTU21D;67641;59.864;30.464;2023-09-07T15:00:08;31.38;60.18
78366;HTU21D;67641;59.864;30.464;2023-09-07T15:02:34;31.35;59.54
78366;HTU21D;67641;59.864;30.464;2023-09-07T15:05:01;31.37;59.40